sensor_id;sensor_type;location;lat;lon;timestamp;pressure;altitude;pressure_sealevel;temperature;humidity
39411;BME280;26579;43.238;23.124;2023-07-09T00:01:57;97337.56;;;21.12;50.62
39411;BME280;26579;43.238;23.124;2023-07-09T00:04:23;97332.63;;;21.09;50.99
39411;BME280;26579;43.238;23.124;2023-07-09T00:06:49;97318.38;;;20.95;51.79
39411;BME280;26579;43.238;23.124;2023-07-09T00:09:17;97324.03;;;20.92;51.50
39411;BME280;26579;43.238;23.124;2023-07-09T00:11:45;97328.75;;;20.97;51.55
39411;BME280;26579;43.238;23.124;2023-07-09T00:14:13;97328.31;;;20.93;50.72
39411;BME280;26579;43.238;23.124;2023-07-09T00:16:40;97336.25;;;20.93;51.05
39411;BME280;26579;43.238;23.124;2023-07-09T00:19:14;97338.53;;;20.96;51.67
39411;BME280;26579;43.238;23.124;2023-07-09T00:21:40;97335.34;;;21.01;50.45
39411;BME280;26579;43.238;23.124;2023-07-09T00:24:07;97325.13;;;20.98;50.51
39411;BME280;26579;43.238;23.124;2023-07-09T00:26:33;97324.56;;;21.02;50.17
39411;BME280;26579;43.238;23.124;2023-07-09T00:28:59;97326.59;;;21.15;49.36
39411;BME280;26579;43.238;23.124;2023-07-09T00:31:26;97313.53;;;21.14;49.75
39411;BME280;26579;43.238;23.124;2023-07-09T00:33:52;97326.13;;;21.12;49.82
39411;BME280;26579;43.238;23.124;2023-07-09T00:36:25;97314.91;;;20.95;49.60
39411;BME280;26579;43.238;23.124;2023-07-09T00:38:52;97321.31;;;21.00;50.16
39411;BME280;26579;43.238;23.124;2023-07-09T00:41:19;97325.06;;;21.06;50.32
39411;BME280;26579;43.238;23.124;2023-07-09T00:43:47;97324.31;;;21.12;48.94
39411;BME280;26579;43.238;23.124;2023-07-09T00:48:51;97320.56;;;21.07;50.19
39411;BME280;26579;43.238;23.124;2023-07-09T00:51:20;97312.63;;;21.07;49.51
39411;BME280;26579;43.238;23.124;2023-07-09T00:53:49;97322.28;;;21.14;49.44
39411;BME280;26579;43.238;23.124;2023-07-09T00:56:24;97319.38;;;21.09;49.14
39411;BME280;26579;43.238;23.124;2023-07-09T00:58:53;97322.94;;;21.01;49.92
39411;BME280;26579;43.238;23.124;2023-07-09T01:01:21;97311.25;;;20.96;50.11
39411;BME280;26579;43.238;23.124;2023-07-09T01:03:52;97315.16;;;21.00;50.18
39411;BME280;26579;43.238;23.124;2023-07-09T01:06:25;97319.19;;;20.96;49.94
39411;BME280;26579;43.238;23.124;2023-07-09T01:08:53;97316.47;;;20.89;50.58
39411;BME280;26579;43.238;23.124;2023-07-09T01:11:21;97323.66;;;20.80;52.45
39411;BME280;26579;43.238;23.124;2023-07-09T01:13:54;97323.22;;;20.77;52.39
39411;BME280;26579;43.238;23.124;2023-07-09T01:16:23;97328.09;;;20.65;55.32
39411;BME280;26579;43.238;23.124;2023-07-09T01:18:51;97323.81;;;20.41;55.76
39411;BME280;26579;43.238;23.124;2023-07-09T01:21:17;97328.22;;;20.49;56.69
39411;BME280;26579;43.238;23.124;2023-07-09T01:23:47;97328.47;;;20.39;53.78
39411;BME280;26579;43.238;23.124;2023-07-09T01:26:17;97330.81;;;20.34;53.47
39411;BME280;26579;43.238;23.124;2023-07-09T01:28:45;97314.97;;;20.34;53.54
39411;BME280;26579;43.238;23.124;2023-07-09T01:31:14;97320.25;;;20.34;51.46
39411;BME280;26579;43.238;23.124;2023-07-09T01:33:44;97333.94;;;20.38;51.69
39411;BME280;26579;43.238;23.124;2023-07-09T01:36:11;97330.97;;;20.32;55.20
39411;BME280;26579;43.238;23.124;2023-07-09T01:38:37;97337.94;;;20.33;53.02
39411;BME280;26579;43.238;23.124;2023-07-09T01:41:03;97336.63;;;20.29;54.03
39411;BME280;26579;43.238;23.124;2023-07-09T01:43:29;97335.88;;;20.21;54.06
39411;BME280;26579;43.238;23.124;2023-07-09T01:45:55;97334.81;;;20.07;55.26
39411;BME280;26579;43.238;23.124;2023-07-09T01:48:20;97341.03;;;20.14;53.72
39411;BME280;26579;43.238;23.124;2023-07-09T01:50:46;97335.28;;;20.10;53.64
39411;BME280;26579;43.238;23.124;2023-07-09T01:53:14;97336.06;;;20.19;52.63
39411;BME280;26579;43.238;23.124;2023-07-09T01:55:41;97331.13;;;20.16;51.25
39411;BME280;26579;43.238;23.124;2023-07-09T01:58:06;97335.22;;;20.19;51.27
39411;BME280;26579;43.238;23.124;2023-07-09T02:00:33;97335.06;;;20.20;51.86
39411;BME280;26579;43.238;23.124;2023-07-09T02:02:59;97349.53;;;20.24;51.32
39411;BME280;26579;43.238;23.124;2023-07-09T02:05:25;97330.06;;;20.25;50.49
39411;BME280;26579;43.238;23.124;2023-07-09T02:07:52;97341.44;;;20.26;50.75
39411;BME280;26579;43.238;23.124;2023-07-09T02:10:18;97340.09;;;20.30;50.56
39411;BME280;26579;43.238;23.124;2023-07-09T02:12:44;97343.75;;;20.29;50.53
39411;BME280;26579;43.238;23.124;2023-07-09T02:15:11;97343.38;;;20.32;49.91
39411;BME280;26579;43.238;23.124;2023-07-09T02:17:37;97336.53;;;20.23;50.00
39411;BME280;26579;43.238;23.124;2023-07-09T02:20:04;97343.69;;;20.14;51.09
39411;BME280;26579;43.238;23.124;2023-07-09T02:22:29;97337.16;;;20.02;51.34
39411;BME280;26579;43.238;23.124;2023-07-09T02:24:56;97354.31;;;20.06;52.13
39411;BME280;26579;43.238;23.124;2023-07-09T02:27:22;97358.31;;;20.02;52.12
39411;BME280;26579;43.238;23.124;2023-07-09T02:29:48;97354.69;;;19.95;52.51
39411;BME280;26579;43.238;23.124;2023-07-09T02:32:19;97371.88;;;19.99;52.51
39411;BME280;26579;43.238;23.124;2023-07-09T02:34:46;97365.28;;;19.95;52.26
39411;BME280;26579;43.238;23.124;2023-07-09T02:37:12;97359.06;;;19.87;52.14
39411;BME280;26579;43.238;23.124;2023-07-09T02:39:38;97376.53;;;19.88;51.36
39411;BME280;26579;43.238;23.124;2023-07-09T02:42:04;97370.09;;;19.91;51.73
39411;BME280;26579;43.238;23.124;2023-07-09T02:44:29;97378.84;;;19.92;52.22
39411;BME280;26579;43.238;23.124;2023-07-09T02:46:55;97381.34;;;19.85;52.24
39411;BME280;26579;43.238;23.124;2023-07-09T02:49:22;97388.97;;;19.80;52.29
39411;BME280;26579;43.238;23.124;2023-07-09T02:51:47;97388.16;;;19.79;52.12
39411;BME280;26579;43.238;23.124;2023-07-09T02:54:13;97388.03;;;19.73;52.03
39411;BME280;26579;43.238;23.124;2023-07-09T02:56:39;97401.16;;;19.81;52.00
39411;BME280;26579;43.238;23.124;2023-07-09T02:59:05;97398.88;;;19.78;51.91
39411;BME280;26579;43.238;23.124;2023-07-09T03:01:30;97391.97;;;19.77;51.77
39411;BME280;26579;43.238;23.124;2023-07-09T03:03:57;97394.13;;;19.73;51.57
39411;BME280;26579;43.238;23.124;2023-07-09T03:06:24;97395.94;;;19.64;51.31
39411;BME280;26579;43.238;23.124;2023-07-09T03:08:50;97393.66;;;19.61;52.07
39411;BME280;26579;43.238;23.124;2023-07-09T03:11:16;97395.63;;;19.67;51.96
39411;BME280;26579;43.238;23.124;2023-07-09T03:13:43;97395.94;;;19.64;52.60
39411;BME280;26579;43.238;23.124;2023-07-09T03:16:09;97388.38;;;19.61;51.68
39411;BME280;26579;43.238;23.124;2023-07-09T03:18:35;97395.13;;;19.64;52.38
39411;BME280;26579;43.238;23.124;2023-07-09T03:21:01;97397.09;;;19.62;52.15
39411;BME280;26579;43.238;23.124;2023-07-09T03:23:27;97405.19;;;19.60;52.91
39411;BME280;26579;43.238;23.124;2023-07-09T03:25:54;97394.81;;;19.59;53.17
39411;BME280;26579;43.238;23.124;2023-07-09T03:28:20;97399.59;;;19.63;53.31
39411;BME280;26579;43.238;23.124;2023-07-09T03:30:47;97390.34;;;19.59;53.23
39411;BME280;26579;43.238;23.124;2023-07-09T03:33:15;97403.09;;;19.56;53.21
39411;BME280;26579;43.238;23.124;2023-07-09T03:35:41;97392.84;;;19.61;53.90
39411;BME280;26579;43.238;23.124;2023-07-09T03:38:08;97399.09;;;19.60;54.13
39411;BME280;26579;43.238;23.124;2023-07-09T03:40:35;97387.88;;;19.66;53.81
39411;BME280;26579;43.238;23.124;2023-07-09T03:43:00;97397.59;;;19.74;53.72
39411;BME280;26579;43.238;23.124;2023-07-09T03:45:26;97386.34;;;19.72;53.92
39411;BME280;26579;43.238;23.124;2023-07-09T03:47:52;97378.63;;;19.62;53.99
39411;BME280;26579;43.238;23.124;2023-07-09T03:50:18;97404.66;;;19.81;53.84
39411;BME280;26579;43.238;23.124;2023-07-09T03:52:43;97398.50;;;19.89;54.19
39411;BME280;26579;43.238;23.124;2023-07-09T03:55:09;97389.44;;;19.83;54.53
39411;BME280;26579;43.238;23.124;2023-07-09T03:57:35;97394.38;;;19.86;54.43
39411;BME280;26579;43.238;23.124;2023-07-09T04:00:03;97399.81;;;19.93;54.96
39411;BME280;26579;43.238;23.124;2023-07-09T04:02:41;97400.28;;;19.97;54.13
39411;BME280;26579;43.238;23.124;2023-07-09T04:05:07;97403.94;;;19.96;54.71
39411;BME280;26579;43.238;23.124;2023-07-09T04:07:33;97416.59;;;20.00;55.19
39411;BME280;26579;43.238;23.124;2023-07-09T04:09:58;97414.78;;;20.01;54.96
39411;BME280;26579;43.238;23.124;2023-07-09T04:12:24;97412.09;;;20.09;55.18
39411;BME280;26579;43.238;23.124;2023-07-09T04:14:50;97421.13;;;20.23;55.99
39411;BME280;26579;43.238;23.124;2023-07-09T04:17:15;97425.34;;;20.32;55.29
39411;BME280;26579;43.238;23.124;2023-07-09T04:19:41;97409.94;;;20.35;54.28
39411;BME280;26579;43.238;23.124;2023-07-09T04:22:09;97425.09;;;20.42;54.99
39411;BME280;26579;43.238;23.124;2023-07-09T04:24:35;97406.44;;;20.43;55.13
39411;BME280;26579;43.238;23.124;2023-07-09T04:27:01;97423.75;;;20.54;55.13
39411;BME280;26579;43.238;23.124;2023-07-09T04:29:27;97414.91;;;20.62;55.24
39411;BME280;26579;43.238;23.124;2023-07-09T04:31:52;97421.69;;;20.64;54.90
39411;BME280;26579;43.238;23.124;2023-07-09T04:34:18;97426.81;;;20.66;55.82
39411;BME280;26579;43.238;23.124;2023-07-09T04:36:44;97416.69;;;20.69;56.28
39411;BME280;26579;43.238;23.124;2023-07-09T04:39:09;97414.69;;;20.71;57.02
39411;BME280;26579;43.238;23.124;2023-07-09T04:41:35;97418.09;;;20.80;56.54
39411;BME280;26579;43.238;23.124;2023-07-09T04:44:01;97427.16;;;20.86;56.90
39411;BME280;26579;43.238;23.124;2023-07-09T04:46:27;97430.34;;;20.96;56.59
39411;BME280;26579;43.238;23.124;2023-07-09T04:48:52;97427.19;;;21.00;56.60
39411;BME280;26579;43.238;23.124;2023-07-09T04:51:18;97425.44;;;21.08;57.84
39411;BME280;26579;43.238;23.124;2023-07-09T04:53:44;97419.50;;;21.06;57.44
39411;BME280;26579;43.238;23.124;2023-07-09T04:56:09;97428.66;;;21.18;57.06
39411;BME280;26579;43.238;23.124;2023-07-09T04:58:35;97435.13;;;21.15;58.33
39411;BME280;26579;43.238;23.124;2023-07-09T05:01:01;97434.59;;;21.20;57.58
39411;BME280;26579;43.238;23.124;2023-07-09T05:03:27;97431.84;;;21.28;57.66
39411;BME280;26579;43.238;23.124;2023-07-09T05:05:52;97426.66;;;21.35;57.48
39411;BME280;26579;43.238;23.124;2023-07-09T05:08:18;97432.09;;;21.41;57.67
39411;BME280;26579;43.238;23.124;2023-07-09T05:10:46;97425.78;;;21.42;57.93
39411;BME280;26579;43.238;23.124;2023-07-09T05:13:13;97437.19;;;21.58;58.16
39411;BME280;26579;43.238;23.124;2023-07-09T05:15:45;97432.00;;;21.64;58.43
39411;BME280;26579;43.238;23.124;2023-07-09T05:18:13;97432.44;;;21.68;57.68
39411;BME280;26579;43.238;23.124;2023-07-09T05:20:40;97422.13;;;21.73;57.66
39411;BME280;26579;43.238;23.124;2023-07-09T05:23:06;97418.25;;;21.76;57.10
39411;BME280;26579;43.238;23.124;2023-07-09T05:25:32;97414.44;;;21.78;56.96
39411;BME280;26579;43.238;23.124;2023-07-09T05:27:57;97435.72;;;22.00;58.43
39411;BME280;26579;43.238;23.124;2023-07-09T05:30:23;97430.75;;;22.11;57.78
39411;BME280;26579;43.238;23.124;2023-07-09T05:32:49;97434.88;;;22.14;58.91
39411;BME280;26579;43.238;23.124;2023-07-09T05:35:14;97434.41;;;22.25;57.96
39411;BME280;26579;43.238;23.124;2023-07-09T05:37:40;97436.09;;;22.33;57.72
39411;BME280;26579;43.238;23.124;2023-07-09T05:40:07;97434.53;;;22.38;56.45
39411;BME280;26579;43.238;23.124;2023-07-09T05:42:33;97434.22;;;22.48;57.53
39411;BME280;26579;43.238;23.124;2023-07-09T05:44:59;97431.66;;;22.55;57.09
39411;BME280;26579;43.238;23.124;2023-07-09T05:47:26;97439.72;;;22.68;57.12
39411;BME280;26579;43.238;23.124;2023-07-09T05:49:51;97437.97;;;22.75;56.20
39411;BME280;26579;43.238;23.124;2023-07-09T05:52:18;97431.38;;;22.71;59.45
39411;BME280;26579;43.238;23.124;2023-07-09T05:54:44;97439.03;;;22.81;58.25
39411;BME280;26579;43.238;23.124;2023-07-09T05:57:10;97435.63;;;22.87;58.52
39411;BME280;26579;43.238;23.124;2023-07-09T05:59:36;97424.47;;;22.77;59.55
39411;BME280;26579;43.238;23.124;2023-07-09T06:02:02;97438.53;;;22.92;58.62
39411;BME280;26579;43.238;23.124;2023-07-09T06:04:29;97431.16;;;22.94;58.19
39411;BME280;26579;43.238;23.124;2023-07-09T06:06:55;97431.88;;;23.03;58.23
39411;BME280;26579;43.238;23.124;2023-07-09T06:09:20;97431.31;;;23.08;57.78
39411;BME280;26579;43.238;23.124;2023-07-09T06:11:46;97434.25;;;23.19;59.06
39411;BME280;26579;43.238;23.124;2023-07-09T06:14:12;97431.63;;;23.26;59.75
39411;BME280;26579;43.238;23.124;2023-07-09T06:16:37;97442.97;;;23.41;58.55
39411;BME280;26579;43.238;23.124;2023-07-09T06:19:03;97428.31;;;23.45;56.73
39411;BME280;26579;43.238;23.124;2023-07-09T06:21:29;97439.19;;;23.57;53.63
39411;BME280;26579;43.238;23.124;2023-07-09T06:23:55;97438.47;;;23.70;53.51
39411;BME280;26579;43.238;23.124;2023-07-09T06:26:21;97431.16;;;23.79;51.67
39411;BME280;26579;43.238;23.124;2023-07-09T06:28:46;97441.00;;;23.85;51.67
39411;BME280;26579;43.238;23.124;2023-07-09T06:31:12;97432.03;;;23.92;51.85
39411;BME280;26579;43.238;23.124;2023-07-09T06:33:38;97442.28;;;23.95;50.75
39411;BME280;26579;43.238;23.124;2023-07-09T06:36:04;97446.16;;;23.93;51.04
39411;BME280;26579;43.238;23.124;2023-07-09T06:38:30;97426.53;;;23.94;51.48
39411;BME280;26579;43.238;23.124;2023-07-09T06:40:58;97436.22;;;24.15;53.54
39411;BME280;26579;43.238;23.124;2023-07-09T06:43:24;97424.16;;;24.26;50.04
39411;BME280;26579;43.238;23.124;2023-07-09T06:45:53;97430.19;;;24.48;52.77
39411;BME280;26579;43.238;23.124;2023-07-09T06:48:19;97440.47;;;24.64;49.49
39411;BME280;26579;43.238;23.124;2023-07-09T06:50:45;97414.66;;;24.71;48.60
39411;BME280;26579;43.238;23.124;2023-07-09T06:53:11;97432.28;;;24.92;45.20
39411;BME280;26579;43.238;23.124;2023-07-09T06:55:39;97421.66;;;24.99;45.68
39411;BME280;26579;43.238;23.124;2023-07-09T06:58:06;97422.66;;;25.04;47.00
39411;BME280;26579;43.238;23.124;2023-07-09T07:00:36;97427.19;;;25.17;46.09
39411;BME280;26579;43.238;23.124;2023-07-09T07:03:03;97429.63;;;25.05;45.25
39411;BME280;26579;43.238;23.124;2023-07-09T07:05:29;97431.50;;;25.18;43.85
39411;BME280;26579;43.238;23.124;2023-07-09T07:07:54;97432.72;;;25.29;45.31
39411;BME280;26579;43.238;23.124;2023-07-09T07:10:20;97417.34;;;25.24;46.46
39411;BME280;26579;43.238;23.124;2023-07-09T07:12:47;97428.19;;;25.43;46.10
39411;BME280;26579;43.238;23.124;2023-07-09T07:15:15;97432.69;;;25.42;44.04
39411;BME280;26579;43.238;23.124;2023-07-09T07:17:41;97427.94;;;25.51;43.31
39411;BME280;26579;43.238;23.124;2023-07-09T07:20:09;97422.38;;;25.59;42.05
39411;BME280;26579;43.238;23.124;2023-07-09T07:22:36;97419.94;;;25.64;41.93
39411;BME280;26579;43.238;23.124;2023-07-09T07:25:03;97412.75;;;25.65;43.20
39411;BME280;26579;43.238;23.124;2023-07-09T07:27:29;97406.16;;;25.67;43.41
39411;BME280;26579;43.238;23.124;2023-07-09T07:29:54;97404.16;;;25.63;41.81
39411;BME280;26579;43.238;23.124;2023-07-09T07:32:20;97411.56;;;25.47;41.20
39411;BME280;26579;43.238;23.124;2023-07-09T07:34:49;97407.03;;;25.55;44.53
39411;BME280;26579;43.238;23.124;2023-07-09T07:37:17;97407.63;;;25.63;43.88
39411;BME280;26579;43.238;23.124;2023-07-09T07:39:43;97400.28;;;25.52;39.48
39411;BME280;26579;43.238;23.124;2023-07-09T07:42:09;97394.72;;;25.60;43.16
39411;BME280;26579;43.238;23.124;2023-07-09T07:44:35;97402.66;;;25.73;40.39
39411;BME280;26579;43.238;23.124;2023-07-09T07:47:00;97396.72;;;25.78;41.57
39411;BME280;26579;43.238;23.124;2023-07-09T07:49:26;97398.56;;;25.84;41.06
39411;BME280;26579;43.238;23.124;2023-07-09T07:51:52;97406.31;;;25.92;41.21
39411;BME280;26579;43.238;23.124;2023-07-09T07:54:18;97413.47;;;25.99;38.56
39411;BME280;26579;43.238;23.124;2023-07-09T07:56:43;97411.84;;;25.91;39.35
39411;BME280;26579;43.238;23.124;2023-07-09T07:59:09;97412.66;;;25.91;39.88
39411;BME280;26579;43.238;23.124;2023-07-09T08:01:35;97410.59;;;26.00;40.01
39411;BME280;26579;43.238;23.124;2023-07-09T08:04:03;97407.06;;;26.06;41.29
39411;BME280;26579;43.238;23.124;2023-07-09T08:06:29;97411.44;;;26.01;42.71
39411;BME280;26579;43.238;23.124;2023-07-09T08:08:54;97406.88;;;26.08;43.19
39411;BME280;26579;43.238;23.124;2023-07-09T08:11:20;97402.09;;;26.16;42.46
39411;BME280;26579;43.238;23.124;2023-07-09T08:13:46;97405.94;;;26.27;44.38
39411;BME280;26579;43.238;23.124;2023-07-09T08:16:11;97402.00;;;26.36;42.11
39411;BME280;26579;43.238;23.124;2023-07-09T08:18:38;97396.16;;;26.53;44.21
39411;BME280;26579;43.238;23.124;2023-07-09T08:21:04;97408.38;;;26.67;43.37
39411;BME280;26579;43.238;23.124;2023-07-09T08:23:30;97400.78;;;26.64;36.27
39411;BME280;26579;43.238;23.124;2023-07-09T08:25:57;97395.44;;;26.71;38.88
39411;BME280;26579;43.238;23.124;2023-07-09T08:28:24;97391.22;;;26.56;37.95
39411;BME280;26579;43.238;23.124;2023-07-09T08:30:53;97403.47;;;26.64;37.67
39411;BME280;26579;43.238;23.124;2023-07-09T08:33:19;97405.16;;;26.58;38.08
39411;BME280;26579;43.238;23.124;2023-07-09T08:35:45;97400.91;;;26.51;37.92
39411;BME280;26579;43.238;23.124;2023-07-09T08:38:11;97405.06;;;26.72;37.28
39411;BME280;26579;43.238;23.124;2023-07-09T08:40:40;97403.16;;;26.79;39.29
39411;BME280;26579;43.238;23.124;2023-07-09T08:43:15;97399.28;;;26.75;36.95
39411;BME280;26579;43.238;23.124;2023-07-09T08:48:22;97406.22;;;26.82;36.80
39411;BME280;26579;43.238;23.124;2023-07-09T08:50:54;97406.44;;;26.81;39.57
39411;BME280;26579;43.238;23.124;2023-07-09T08:53:32;97399.47;;;26.80;36.28
39411;BME280;26579;43.238;23.124;2023-07-09T08:55:59;97408.03;;;26.89;36.71
39411;BME280;26579;43.238;23.124;2023-07-09T08:58:29;97403.44;;;26.96;37.43
39411;BME280;26579;43.238;23.124;2023-07-09T09:01:02;97409.03;;;27.13;38.71
39411;BME280;26579;43.238;23.124;2023-07-09T09:03:57;97401.16;;;27.24;39.60
39411;BME280;26579;43.238;23.124;2023-07-09T09:06:25;97401.41;;;27.41;37.78
39411;BME280;26579;43.238;23.124;2023-07-09T09:13:56;97402.72;;;27.50;37.39
39411;BME280;26579;43.238;23.124;2023-07-09T09:16:35;97399.59;;;27.35;35.87
39411;BME280;26579;43.238;23.124;2023-07-09T09:19:16;97396.84;;;27.42;36.31
39411;BME280;26579;43.238;23.124;2023-07-09T09:21:44;97390.03;;;27.46;37.32
39411;BME280;26579;43.238;23.124;2023-07-09T09:24:17;97388.03;;;27.60;36.78
39411;BME280;26579;43.238;23.124;2023-07-09T09:26:45;97390.31;;;27.74;37.97
39411;BME280;26579;43.238;23.124;2023-07-09T09:29:14;97397.97;;;27.71;37.08
39411;BME280;26579;43.238;23.124;2023-07-09T09:31:43;97392.78;;;27.76;37.56
39411;BME280;26579;43.238;23.124;2023-07-09T09:34:20;97379.59;;;27.81;36.66
39411;BME280;26579;43.238;23.124;2023-07-09T09:36:47;97385.56;;;27.95;36.92
39411;BME280;26579;43.238;23.124;2023-07-09T09:39:13;97384.59;;;28.08;37.24
39411;BME280;26579;43.238;23.124;2023-07-09T09:41:39;97374.38;;;28.16;37.33
39411;BME280;26579;43.238;23.124;2023-07-09T09:44:04;97384.63;;;28.19;36.10
39411;BME280;26579;43.238;23.124;2023-07-09T09:46:32;97387.53;;;28.18;36.76
39411;BME280;26579;43.238;23.124;2023-07-09T09:49:02;97379.28;;;28.19;35.81
39411;BME280;26579;43.238;23.124;2023-07-09T09:51:28;97385.09;;;28.16;36.21
39411;BME280;26579;43.238;23.124;2023-07-09T09:54:00;97378.94;;;28.16;36.56
39411;BME280;26579;43.238;23.124;2023-07-09T09:56:37;97383.03;;;28.30;37.33
39411;BME280;26579;43.238;23.124;2023-07-09T09:59:04;97380.50;;;28.35;37.55
39411;BME280;26579;43.238;23.124;2023-07-09T10:01:32;97387.84;;;28.40;36.31
39411;BME280;26579;43.238;23.124;2023-07-09T10:03:59;97384.75;;;28.43;36.49
39411;BME280;26579;43.238;23.124;2023-07-09T10:06:35;97379.06;;;28.51;36.56
39411;BME280;26579;43.238;23.124;2023-07-09T10:09:16;97377.44;;;28.62;35.79
39411;BME280;26579;43.238;23.124;2023-07-09T10:11:46;97385.38;;;28.38;34.43
39411;BME280;26579;43.238;23.124;2023-07-09T10:17:04;97374.91;;;28.07;35.54
39411;BME280;26579;43.238;23.124;2023-07-09T10:19:42;97380.69;;;28.22;36.83
39411;BME280;26579;43.238;23.124;2023-07-09T10:22:28;97380.28;;;28.37;37.21
39411;BME280;26579;43.238;23.124;2023-07-09T10:28:26;97372.31;;;28.49;35.26
39411;BME280;26579;43.238;23.124;2023-07-09T10:34:03;97370.25;;;28.62;34.87
39411;BME280;26579;43.238;23.124;2023-07-09T10:39:38;97366.63;;;28.57;35.51
39411;BME280;26579;43.238;23.124;2023-07-09T10:42:13;97359.94;;;28.48;37.63
39411;BME280;26579;43.238;23.124;2023-07-09T10:44:43;97371.28;;;28.61;35.17
39411;BME280;26579;43.238;23.124;2023-07-09T10:47:34;97363.47;;;28.48;36.06
39411;BME280;26579;43.238;23.124;2023-07-09T10:50:03;97362.22;;;28.32;37.58
39411;BME280;26579;43.238;23.124;2023-07-09T10:52:36;97370.09;;;28.46;36.39
39411;BME280;26579;43.238;23.124;2023-07-09T10:55:28;97356.94;;;28.56;36.17
39411;BME280;26579;43.238;23.124;2023-07-09T10:58:04;97370.91;;;28.46;36.23
39411;BME280;26579;43.238;23.124;2023-07-09T11:00:37;97361.66;;;28.42;36.20
39411;BME280;26579;43.238;23.124;2023-07-09T11:03:19;97376.28;;;28.58;37.72
39411;BME280;26579;43.238;23.124;2023-07-09T11:05:48;97368.09;;;28.53;36.33
39411;BME280;26579;43.238;23.124;2023-07-09T11:08:18;97363.97;;;28.38;36.47
39411;BME280;26579;43.238;23.124;2023-07-09T11:10:59;97372.88;;;28.20;37.77
39411;BME280;26579;43.238;23.124;2023-07-09T11:13:40;97367.91;;;28.36;37.61
39411;BME280;26579;43.238;23.124;2023-07-09T11:16:13;97369.50;;;28.43;37.24
39411;BME280;26579;43.238;23.124;2023-07-09T11:18:40;97371.06;;;28.63;38.58
39411;BME280;26579;43.238;23.124;2023-07-09T11:21:08;97369.69;;;28.84;38.88
39411;BME280;26579;43.238;23.124;2023-07-09T11:23:46;97370.28;;;28.86;37.16
39411;BME280;26579;43.238;23.124;2023-07-09T11:26:33;97365.47;;;29.00;38.10
39411;BME280;26579;43.238;23.124;2023-07-09T11:29:11;97370.88;;;29.11;38.03
39411;BME280;26579;43.238;23.124;2023-07-09T11:31:41;97363.53;;;29.19;36.04
39411;BME280;26579;43.238;23.124;2023-07-09T11:39:22;97365.16;;;29.20;34.86
39411;BME280;26579;43.238;23.124;2023-07-09T11:41:52;97369.03;;;29.12;35.01
39411;BME280;26579;43.238;23.124;2023-07-09T11:44:21;97365.72;;;29.33;36.29
39411;BME280;26579;43.238;23.124;2023-07-09T11:46:59;97338.22;;;29.38;37.36
39411;BME280;26579;43.238;23.124;2023-07-09T11:49:32;97363.84;;;29.46;34.45
39411;BME280;26579;43.238;23.124;2023-07-09T11:52:03;97361.97;;;29.46;35.48
39411;BME280;26579;43.238;23.124;2023-07-09T11:54:34;97350.31;;;29.41;33.95
39411;BME280;26579;43.238;23.124;2023-07-09T11:57:00;97344.75;;;29.30;34.96
39411;BME280;26579;43.238;23.124;2023-07-09T11:59:26;97345.66;;;29.48;37.59
39411;BME280;26579;43.238;23.124;2023-07-09T12:01:52;97342.38;;;29.46;35.60
39411;BME280;26579;43.238;23.124;2023-07-09T12:04:21;97348.91;;;29.73;38.02
39411;BME280;26579;43.238;23.124;2023-07-09T12:06:47;97353.69;;;29.71;35.13
39411;BME280;26579;43.238;23.124;2023-07-09T12:09:18;97342.63;;;29.56;36.58
39411;BME280;26579;43.238;23.124;2023-07-09T12:11:46;97346.06;;;29.80;36.55
39411;BME280;26579;43.238;23.124;2023-07-09T12:14:15;97348.06;;;30.01;36.34
39411;BME280;26579;43.238;23.124;2023-07-09T12:16:43;97351.16;;;30.22;37.77
39411;BME280;26579;43.238;23.124;2023-07-09T12:19:11;97346.31;;;30.36;34.79
39411;BME280;26579;43.238;23.124;2023-07-09T12:21:39;97339.47;;;29.99;33.79
39411;BME280;26579;43.238;23.124;2023-07-09T12:24:28;97346.88;;;29.81;35.11
39411;BME280;26579;43.238;23.124;2023-07-09T12:26:56;97341.44;;;29.64;35.16
39411;BME280;26579;43.238;23.124;2023-07-09T12:29:31;97346.63;;;29.18;33.84
39411;BME280;26579;43.238;23.124;2023-07-09T12:31:57;97335.53;;;29.50;35.26
39411;BME280;26579;43.238;23.124;2023-07-09T12:34:24;97326.59;;;29.21;34.17
39411;BME280;26579;43.238;23.124;2023-07-09T12:36:52;97326.69;;;29.14;35.36
39411;BME280;26579;43.238;23.124;2023-07-09T12:39:24;97326.94;;;29.13;34.82
39411;BME280;26579;43.238;23.124;2023-07-09T12:41:54;97330.16;;;29.26;36.07
39411;BME280;26579;43.238;23.124;2023-07-09T12:44:21;97319.50;;;29.55;36.83
39411;BME280;26579;43.238;23.124;2023-07-09T12:46:49;97328.81;;;29.76;34.10
39411;BME280;26579;43.238;23.124;2023-07-09T12:49:31;97318.97;;;29.82;34.83
39411;BME280;26579;43.238;23.124;2023-07-09T12:52:12;97324.31;;;29.65;35.87
39411;BME280;26579;43.238;23.124;2023-07-09T12:54:39;97319.63;;;29.60;36.32
39411;BME280;26579;43.238;23.124;2023-07-09T12:57:13;97325.25;;;29.87;35.62
39411;BME280;26579;43.238;23.124;2023-07-09T12:59:40;97319.13;;;30.04;34.94
39411;BME280;26579;43.238;23.124;2023-07-09T13:02:15;97310.44;;;30.13;33.95
39411;BME280;26579;43.238;23.124;2023-07-09T13:04:42;97307.19;;;30.11;33.60
39411;BME280;26579;43.238;23.124;2023-07-09T13:09:51;97311.41;;;30.07;33.18
39411;BME280;26579;43.238;23.124;2023-07-09T13:12:18;97317.66;;;29.67;33.37
39411;BME280;26579;43.238;23.124;2023-07-09T13:14:52;97299.75;;;29.73;35.30
39411;BME280;26579;43.238;23.124;2023-07-09T13:17:18;97309.75;;;29.89;35.85
39411;BME280;26579;43.238;23.124;2023-07-09T13:19:43;97315.38;;;30.05;34.08
39411;BME280;26579;43.238;23.124;2023-07-09T13:22:14;97318.75;;;30.12;34.85
39411;BME280;26579;43.238;23.124;2023-07-09T13:24:40;97317.84;;;30.06;34.03
39411;BME280;26579;43.238;23.124;2023-07-09T13:27:11;97320.34;;;30.25;35.28